Astor — C6JR3 — position and weather

sailwx.info

Track history (hours):
 
Tides and Currents Weather Stations Pressure Air Temp Water Temp Dewpoint Dewpoint Depression Visibility Wind Speed Wind Dir Waves Ship Positions

Astor

Operator: Passat Ship Management Ltd

Last reported at 2017-Apr-24 20:04 UTC. Time now 2017-Apr-25 02:54 UTC.
Position N 54°10' E 009°24'.

Length 177 m; draft 6.2 m.

Type: Ship. MMSI: 308214000.

Date/timePositionNaut miles runAvg speedWind from/ knotsBaromVisibWave heightAir tempDewpointWater temp
2017-Apr-24 20:04N 54°10' E 009°24'6 7.6
2017-Apr-24 19:16N 54°04' E 009°19'2 6.6
2017-Apr-24 19:00N 54°03' E 009°18'2 3.1
2017-Apr-24 18:30N 54°01' E 009°18'4 8.4
2017-Apr-24 18:01N 53°57' E 009°15'4 7.8
2017-Apr-24 17:31N 53°54' E 009°10'1 2.3
2017-Apr-24 17:00N 53°54' E 009°09'0 0.4
2017-Apr-24 16:30N 53°54' E 009°09'2 3.2
2017-Apr-24 16:00N 53°53' E 009°06'1 1.9
2017-Apr-24 15:30N 53°53' E 009°04'3 5.9
2017-Apr-24 15:01N 53°51' E 009°00'5 9.7
2017-Apr-24 14:30N 53°50' E 008°52'10 9.7
2017-Apr-24 13:30N 53°56' E 008°39'612.2
2017-Apr-24 13:00N 53°58' E 008°29'611.6
2017-Apr-24 12:30N 53°60' E 008°20'5 8.8
2017-Apr-24 11:59N 53°59' E 008°12'611.9
2017-Apr-24 11:30N 53°58' E 008°02'9416.4
2017-Apr-24 05:43N 53°34' E 005°28'717.0
2017-Apr-24 05:18N 53°31' E 005°16'1217.1
2017-Apr-24 04:35N 53°27' E 004°57'1716.1
2017-Apr-24 03:32N 53°16' E 004°36'117.1
2017-Apr-24 03:28N 53°15' E 004°35'817.1
2017-Apr-24 03:01N 53°08' E 004°29'917.4
2017-Apr-24 02:30N 53°00' E 004°22'917.4
2017-Apr-24 02:00N 52°53' E 004°15'1017.3
2017-Apr-24 01:24N 52°44' E 004°05'717.2
2017-Apr-24 00:59N 52°39' E 003°57'7416.0
2017-Apr-23 20:22N 51°56' E 002°18'615.1
2017-Apr-23 19:57N 51°53' E 002°09'614.7
2017-Apr-23 19:31N 51°50' E 002°00'713.6
2017-Apr-23 19:01N 51°46' E 001°51'714.3
2017-Apr-23 18:30N 51°39' E 001°49'714.1
2017-Apr-23 18:00N 51°33' E 001°42'613.0
2017-Apr-23 17:31N 51°29' E 001°35'4 8.7
2017-Apr-23 17:00N 51°26' E 001°29'611.3
2017-Apr-23 16:30N 51°28' E 001°21'612.3
2017-Apr-23 16:00N 51°29' E 001°11'611.9
2017-Apr-23 15:30N 51°29' E 001°02'714.2
2017-Apr-23 15:00N 51°29' E 000°50'1414.4
2017-Apr-23 14:01N 51°29' E 000°27'4 7.4
2017-Apr-23 13:31N 51°27' E 000°22'0 0.0
2017-Apr-23 13:01N 51°27' E 000°22'0 0.0
2017-Apr-23 12:31N 51°27' E 000°22'0 0.0
2017-Apr-23 12:00N 51°27' E 000°22'0 0.0
2017-Apr-23 11:30N 51°27' E 000°22'0 0.0
2017-Apr-23 11:00N 51°27' E 000°22'0 0.0
2017-Apr-23 10:30N 51°27' E 000°22'0 0.0
2017-Apr-23 10:00N 51°27' E 000°22'0 0.0
2017-Apr-23 09:31N 51°27' E 000°22'0 0.0
2017-Apr-23 09:01N 51°27' E 000°22'0 0.0
2017-Apr-23 08:31N 51°27' E 000°22'0 0.0
2017-Apr-23 08:01N 51°27' E 000°22'0 0.0
2017-Apr-23 07:31N 51°27' E 000°22'0 0.0
2017-Apr-23 07:01N 51°27' E 000°22'2 3.2
2017-Apr-23 06:31N 51°27' E 000°24'510.2
2017-Apr-23 06:00N 51°30' E 000°31'612.5
2017-Apr-23 05:30N 51°30' E 000°41'714.3
2017-Apr-23 05:00N 51°30' E 000°52'713.6
2017-Apr-23 04:30N 51°30' E 001°03'713.6
2017-Apr-23 04:00N 51°29' E 001°14'713.3
2017-Apr-23 03:30N 51°28' E 001°25'510.2
2017-Apr-23 03:00N 51°25' E 001°31'5 9.4
2017-Apr-23 02:30N 51°21' E 001°36'611.3
2017-Apr-23 02:00N 51°16' E 001°38'611.4
2017-Apr-23 01:30N 51°10' E 001°42'510.0
2017-Apr-23 01:00N 51°05' E 001°39'815.7
2017-Apr-23 00:30N 50°60' E 001°31'917.0
2017-Apr-23 00:00N 50°52' E 001°24'5216.1
2017-Apr-22 20:44N 50°23' E 000°16'417.4
2017-Apr-22 20:30N 50°21' E 000°10'917.7
2017-Apr-22 20:00N 50°19' W 000°03'1018.0
2017-Apr-22 19:28N 50°16' W 000°18'1018.3
2017-Apr-22 18:57N 50°14' W 000°32'918.7
2017-Apr-22 18:29N 50°11' W 000°45'8019.3
2017-Apr-22 14:21N 49°52' W 002°46'1517.7
2017-Apr-22 13:29N 49°44' W 003°06'817.5
2017-Apr-22 13:00N 49°39' W 003°17'7816.9
2017-Apr-22 08:24N 49°02' W 005°01'1616.3
2017-Apr-22 07:27N 48°54' W 005°21'716.1
2017-Apr-22 07:00N 48°50' W 005°30'1115.9
2017-Apr-22 06:20N 48°43' W 005°42'516.0
2017-Apr-22 06:00N 48°38' W 005°46'816.1
2017-Apr-22 05:29N 48°30' W 005°51'916.1
2017-Apr-22 04:57N 48°22' W 005°56'916.2
2017-Apr-22 04:21N 48°14' W 006°03'616.2
2017-Apr-22 03:58N 48°08' W 006°07'1216.1
2017-Apr-22 03:15N 47°58' W 006°15'4616.5
2017-Apr-22 00:27N 47°18' W 006°49'716.9
2017-Apr-22 00:00N 47°11' W 006°54'1116.7
2017-Apr-21 23:22N 47°02' W 007°01'616.4
2017-Apr-21 23:00N 46°56' W 007°04'44215.8
2017-Apr-20 19:00N 39°49' W 009°46'816.9
2017-Apr-20 18:30N 39°41' W 009°45'817.1
2017-Apr-20 18:01N 39°33' W 009°45'815.9
2017-Apr-20 17:31N 39°25' W 009°45'714.3
2017-Apr-20 17:00N 39°18' W 009°45'714.5
2017-Apr-20 16:30N 39°10' W 009°44'816.3
2017-Apr-20 16:00N 39°02' W 009°44'817.0
2017-Apr-20 15:31N 38°54' W 009°43'917.1
2017-Apr-20 15:01N 38°45' W 009°42'714.8
2017-Apr-20 14:30N 38°39' W 009°38'1313.0
2017-Apr-20 13:31N 38°38' W 009°21'711.8
2017-Apr-20 12:55N 38°41' W 009°13'410.9
2017-Apr-20 12:30N 38°42' W 009°08'1 1.2
2017-Apr-20 12:00N 38°43' W 009°07'0 0.0
2017-Apr-20 11:29N 38°43' W 009°07'0 0.0
2017-Apr-20 11:00N 38°43' W 009°07'0 0.0
2017-Apr-20 10:31N 38°43' W 009°07'0 0.0
2017-Apr-20 09:56N 38°43' W 009°07'0 0.0
2017-Apr-20 09:31N 38°43' W 009°07'0 0.0
2017-Apr-20 09:00N 38°43' W 009°07'0 0.0
2017-Apr-20 08:27N 38°43' W 009°07'0 0.0
2017-Apr-20 08:01N 38°43' W 009°07'0 0.0
2017-Apr-20 07:30N 38°43' W 009°07'0 0.0
2017-Apr-20 07:01N 38°43' W 009°07'0 0.0
2017-Apr-20 06:30N 38°43' W 009°07'0 0.0
2017-Apr-20 05:59N 38°43' W 009°07'1 1.9
2017-Apr-20 05:31N 38°42' W 009°08'6 9.7
2017-Apr-20 04:56N 38°41' W 009°15'511.4
2017-Apr-20 04:30N 38°39' W 009°20'611.5
2017-Apr-20 04:01N 38°33' W 009°23'612.7
2017-Apr-20 03:30N 38°27' W 009°23'611.9
2017-Apr-20 03:00N 38°21' W 009°23'611.3
2017-Apr-20 02:31N 38°16' W 009°21'611.1
2017-Apr-20 02:00N 38°10' W 009°20'510.9
2017-Apr-20 01:31N 38°05' W 009°22'611.5
2017-Apr-20 01:01N 38°01' W 009°28'5 9.9
2017-Apr-20 00:31N 37°57' W 009°31'611.4
2017-Apr-20 00:00N 37°52' W 009°29'510.9
2017-Apr-19 23:30N 37°47' W 009°25'511.0
2017-Apr-19 23:00N 37°42' W 009°22'611.5
2017-Apr-19 22:30N 37°36' W 009°21'1811.9
2017-Apr-19 20:58N 37°18' W 009°21'511.8
2017-Apr-19 20:30N 37°13' W 009°21'611.7
2017-Apr-19 19:59N 37°07' W 009°20'611.7
2017-Apr-19 19:30N 37°01' W 009°20'611.6
2017-Apr-19 19:01N 36°55' W 009°19'1211.5
2017-Apr-19 17:59N 36°46' W 009°10'812.4
2017-Apr-19 17:23N 36°42' W 009°02'513.0
2017-Apr-19 17:00N 36°39' W 008°57'714.1
2017-Apr-19 16:31N 36°32' W 008°55'1013.7
2017-Apr-19 15:49N 36°23' W 008°51'1610.9
2017-Apr-19 14:20N 36°08' W 008°43'8 9.9
2017-Apr-19 13:30N 36°01' W 008°38'5 9.5
2017-Apr-19 12:57N 35°57' W 008°35'9 9.2
2017-Apr-19 12:00N 35°48' W 008°34'5 9.6
2017-Apr-19 11:30N 35°43' W 008°32'5 9.5
2017-Apr-19 11:00N 35°39' W 008°30'5 9.3
2017-Apr-19 10:30N 35°35' W 008°28'5 9.1
2017-Apr-19 10:00N 35°30' W 008°26'5 9.1
2017-Apr-19 09:30N 35°26' W 008°24'28 9.3
2017-Apr-19 06:33N 35°01' W 008°12'0 9.0
2017-Apr-19 06:30N 35°00' W 008°12'19 9.5
2017-Apr-19 04:32N 34°43' W 008°03'3 9.5
2017-Apr-19 04:15N 34°40' W 008°02'3 9.5
2017-Apr-19 03:58N 34°38' W 008°01'4 9.5
2017-Apr-19 03:30N 34°34' W 007°59'12 9.6
2017-Apr-19 02:14N 34°22' W 007°53'3 9.3
2017-Apr-19 01:55N 34°20' W 007°51'5 9.3
2017-Apr-19 01:20N 34°15' W 007°49'7 9.6
2017-Apr-19 00:39N 34°08' W 007°47'1 9.6
2017-Apr-19 00:30N 34°07' W 007°47'10 9.9
2017-Apr-18 23:31N 33°58' W 007°42'2 9.9
2017-Apr-18 23:17N 33°56' W 007°41'3 9.6
2017-Apr-18 23:00N 33°53' W 007°40'148 5.3
2017-Apr-17 19:18N 32°32' W 010°08'413.1
2017-Apr-17 18:58N 32°29' W 010°11'813.5
2017-Apr-17 18:21N 32°23' W 010°18'514.4
2017-Apr-17 18:00N 32°20' W 010°23'2514.2
2017-Apr-17 16:14N 32°03' W 010°45'314.2
2017-Apr-17 16:00N 32°01' W 010°48'714.2
2017-Apr-17 15:30N 31°56' W 010°53'714.4
2017-Apr-17 15:00N 31°51' W 010°60'1514.7
2017-Apr-17 14:00N 31°41' W 011°12'714.6
2017-Apr-17 13:30N 31°36' W 011°19'714.7
2017-Apr-17 13:00N 31°31' W 011°25'714.6
2017-Apr-17 12:29N 31°26' W 011°31'714.7
2017-Apr-17 11:59N 31°21' W 011°38'714.5
2017-Apr-17 11:30N 31°16' W 011°43'714.2
2017-Apr-17 11:00N 31°11' W 011°50'1014.0
2017-Apr-17 10:19N 31°04' W 011°58'514.3
2017-Apr-17 09:59N 31°01' W 012°02'914.3
2017-Apr-17 09:21N 30°55' W 012°09'514.3
2017-Apr-17 09:00N 30°52' W 012°14'714.1
2017-Apr-17 08:30N 30°47' W 012°20'714.1
2017-Apr-17 08:00N 30°42' W 012°26'714.1
2017-Apr-17 07:30N 30°37' W 012°32'714.1
2017-Apr-17 07:00N 30°32' W 012°38'714.0
2017-Apr-17 06:30N 30°28' W 012°44'713.9
2017-Apr-17 06:00N 30°23' W 012°50'1614.0
2017-Apr-17 04:53N 30°12' W 013°03'514.1
2017-Apr-17 04:30N 30°08' W 013°07'713.8
2017-Apr-17 04:00N 30°04' W 013°13'713.6
2017-Apr-17 03:30N 29°59' W 013°19'713.7
2017-Apr-17 03:00N 29°55' W 013°25'713.7
2017-Apr-17 02:30N 29°50' W 013°30'713.9
2017-Apr-17 02:00N 29°45' W 013°36'713.9
2017-Apr-17 01:30N 29°40' W 013°42'714.0
2017-Apr-17 00:59N 29°35' W 013°48'714.1
2017-Apr-17 00:30N 29°31' W 013°54'714.4
2017-Apr-17 00:00N 29°25' W 013°60'714.6
2017-Apr-16 23:30N 29°20' W 014°05'714.4
2017-Apr-16 23:00N 29°15' W 014°11'714.5
2017-Apr-16 22:31N 29°10' W 014°16'714.4
2017-Apr-16 22:00N 29°04' W 014°22'714.8
2017-Apr-16 21:30N 28°59' W 014°28'714.9
2017-Apr-16 21:00N 28°53' W 014°33'714.6
2017-Apr-16 20:30N 28°48' W 014°39'714.5
2017-Apr-16 20:00N 28°43' W 014°45'714.5
2017-Apr-16 19:30N 28°37' W 014°50'714.5
2017-Apr-16 19:00N 28°32' W 014°56'714.5
2017-Apr-16 18:30N 28°27' W 015°01'714.8
2017-Apr-16 18:00N 28°21' W 015°07'815.2
2017-Apr-16 17:30N 28°15' W 015°12'714.9
2017-Apr-16 17:00N 28°10' W 015°19'612.0
2017-Apr-16 16:30N 28°07' W 015°24'2 3.2
2017-Apr-16 16:00N 28°08' W 015°26'0 0.0
2017-Apr-16 15:30N 28°08' W 015°26'0 0.0
2017-Apr-16 15:00N 28°08' W 015°26'0 0.0
2017-Apr-16 14:30N 28°08' W 015°26'0 0.0
2017-Apr-16 13:30N 28°08' W 015°26'0 0.0
2017-Apr-16 13:00N 28°08' W 015°26'0 0.0
2017-Apr-16 12:30N 28°08' W 015°26'0 0.0
2017-Apr-16 12:00N 28°08' W 015°26'0 0.0
2017-Apr-16 11:30N 28°08' W 015°26'0 0.0
2017-Apr-16 11:00N 28°08' W 015°25'0 0.0
2017-Apr-16 10:30N 28°08' W 015°25'0 0.0
2017-Apr-16 10:00N 28°08' W 015°26'0 0.0
2017-Apr-16 09:30N 28°08' W 015°25'0 0.0
2017-Apr-16 09:00N 28°08' W 015°25'0 0.0
2017-Apr-16 08:30N 28°08' W 015°25'0 0.0
2017-Apr-16 08:00N 28°08' W 015°26'0 0.0
2017-Apr-16 07:30N 28°08' W 015°26'0 0.0
2017-Apr-16 07:00N 28°08' W 015°26'0 0.0
2017-Apr-16 06:30N 28°08' W 015°26'0 0.0
2017-Apr-16 06:00N 28°08' W 015°25'1 2.3
2017-Apr-16 05:30N 28°07' W 015°25'2 4.4
2017-Apr-16 05:00N 28°06' W 015°23'510.6
2017-Apr-16 04:30N 28°02' W 015°19'611.7
2017-Apr-16 04:00N 27°57' W 015°15'611.8
2017-Apr-16 03:30N 27°52' W 015°16'612.4
2017-Apr-16 03:00N 27°45' W 015°17'2712.7
2017-Apr-16 00:52N 27°20' W 015°26'6912.4
2017-Apr-15 19:19N 26°14' W 015°51'712.4
2017-Apr-15 18:45N 26°07' W 015°53'1112.5
2017-Apr-15 17:54N 25°57' W 015°57'5912.6
2017-Apr-15 13:13N 25°01' W 016°17'512.9
2017-Apr-15 12:50N 24°57' W 016°19'513.2
2017-Apr-15 12:29N 24°52' W 016°21'713.4
2017-Apr-15 12:00N 24°46' W 016°23'1213.4
2017-Apr-15 11:08N 24°35' W 016°27'  
Track history (hours):
 
Tides and Currents Weather Stations Pressure Air Temp Water Temp Dewpoint Dewpoint Depression Visibility Wind Speed Wind Dir Waves Ship Positions

Astor

Operator: Passat Ship Management Ltd

Last reported at 2017-Apr-24 20:04 UTC. Time now 2017-Apr-25 02:54 UTC.
Position N 54°10' E 009°24'.

Length 177 m; draft 6.2 m.

Type: Ship. MMSI: 308214000.

Date/timePositionNaut miles runAvg speedWind from/ knotsBaromVisibWave heightAir tempDewpointWater temp
2017-Apr-24 20:04N 54°10' E 009°24'6 7.6
2017-Apr-24 19:16N 54°04' E 009°19'2 6.6
2017-Apr-24 19:00N 54°03' E 009°18'2 3.1
2017-Apr-24 18:30N 54°01' E 009°18'4 8.4
2017-Apr-24 18:01N 53°57' E 009°15'4 7.8
2017-Apr-24 17:31N 53°54' E 009°10'1 2.3
2017-Apr-24 17:00N 53°54' E 009°09'0 0.4
2017-Apr-24 16:30N 53°54' E 009°09'2 3.2
2017-Apr-24 16:00N 53°53' E 009°06'1 1.9
2017-Apr-24 15:30N 53°53' E 009°04'3 5.9
2017-Apr-24 15:01N 53°51' E 009°00'5 9.7
2017-Apr-24 14:30N 53°50' E 008°52'10 9.7
2017-Apr-24 13:30N 53°56' E 008°39'612.2
2017-Apr-24 13:00N 53°58' E 008°29'611.6
2017-Apr-24 12:30N 53°60' E 008°20'5 8.8
2017-Apr-24 11:59N 53°59' E 008°12'611.9
2017-Apr-24 11:30N 53°58' E 008°02'9416.4
2017-Apr-24 05:43N 53°34' E 005°28'717.0
2017-Apr-24 05:18N 53°31' E 005°16'1217.1
2017-Apr-24 04:35N 53°27' E 004°57'1716.1
2017-Apr-24 03:32N 53°16' E 004°36'117.1
2017-Apr-24 03:28N 53°15' E 004°35'817.1
2017-Apr-24 03:01N 53°08' E 004°29'917.4
2017-Apr-24 02:30N 53°00' E 004°22'917.4
2017-Apr-24 02:00N 52°53' E 004°15'1017.3
2017-Apr-24 01:24N 52°44' E 004°05'717.2
2017-Apr-24 00:59N 52°39' E 003°57'7416.0
2017-Apr-23 20:22N 51°56' E 002°18'615.1
2017-Apr-23 19:57N 51°53' E 002°09'614.7
2017-Apr-23 19:31N 51°50' E 002°00'713.6
2017-Apr-23 19:01N 51°46' E 001°51'714.3
2017-Apr-23 18:30N 51°39' E 001°49'714.1
2017-Apr-23 18:00N 51°33' E 001°42'613.0
2017-Apr-23 17:31N 51°29' E 001°35'4 8.7
2017-Apr-23 17:00N 51°26' E 001°29'611.3
2017-Apr-23 16:30N 51°28' E 001°21'612.3
2017-Apr-23 16:00N 51°29' E 001°11'611.9
2017-Apr-23 15:30N 51°29' E 001°02'714.2
2017-Apr-23 15:00N 51°29' E 000°50'1414.4
2017-Apr-23 14:01N 51°29' E 000°27'4 7.4
2017-Apr-23 13:31N 51°27' E 000°22'0 0.0
2017-Apr-23 13:01N 51°27' E 000°22'0 0.0
2017-Apr-23 12:31N 51°27' E 000°22'0 0.0
2017-Apr-23 12:00N 51°27' E 000°22'0 0.0
2017-Apr-23 11:30N 51°27' E 000°22'0 0.0
2017-Apr-23 11:00N 51°27' E 000°22'0 0.0
2017-Apr-23 10:30N 51°27' E 000°22'0 0.0
2017-Apr-23 10:00N 51°27' E 000°22'0 0.0
2017-Apr-23 09:31N 51°27' E 000°22'0 0.0
2017-Apr-23 09:01N 51°27' E 000°22'0 0.0
2017-Apr-23 08:31N 51°27' E 000°22'0 0.0
2017-Apr-23 08:01N 51°27' E 000°22'0 0.0
2017-Apr-23 07:31N 51°27' E 000°22'0 0.0
2017-Apr-23 07:01N 51°27' E 000°22'2 3.2
2017-Apr-23 06:31N 51°27' E 000°24'510.2
2017-Apr-23 06:00N 51°30' E 000°31'612.5
2017-Apr-23 05:30N 51°30' E 000°41'714.3
2017-Apr-23 05:00N 51°30' E 000°52'713.6
2017-Apr-23 04:30N 51°30' E 001°03'713.6
2017-Apr-23 04:00N 51°29' E 001°14'713.3
2017-Apr-23 03:30N 51°28' E 001°25'510.2
2017-Apr-23 03:00N 51°25' E 001°31'5 9.4
2017-Apr-23 02:30N 51°21' E 001°36'611.3
2017-Apr-23 02:00N 51°16' E 001°38'611.4
2017-Apr-23 01:30N 51°10' E 001°42'510.0
2017-Apr-23 01:00N 51°05' E 001°39'815.7
2017-Apr-23 00:30N 50°60' E 001°31'917.0
2017-Apr-23 00:00N 50°52' E 001°24'5216.1
2017-Apr-22 20:44N 50°23' E 000°16'417.4
2017-Apr-22 20:30N 50°21' E 000°10'917.7
2017-Apr-22 20:00N 50°19' W 000°03'1018.0
2017-Apr-22 19:28N 50°16' W 000°18'1018.3
2017-Apr-22 18:57N 50°14' W 000°32'918.7
2017-Apr-22 18:29N 50°11' W 000°45'8019.3
2017-Apr-22 14:21N 49°52' W 002°46'1517.7
2017-Apr-22 13:29N 49°44' W 003°06'817.5
2017-Apr-22 13:00N 49°39' W 003°17'7816.9
2017-Apr-22 08:24N 49°02' W 005°01'1616.3
2017-Apr-22 07:27N 48°54' W 005°21'716.1
2017-Apr-22 07:00N 48°50' W 005°30'1115.9
2017-Apr-22 06:20N 48°43' W 005°42'516.0
2017-Apr-22 06:00N 48°38' W 005°46'816.1
2017-Apr-22 05:29N 48°30' W 005°51'916.1
2017-Apr-22 04:57N 48°22' W 005°56'916.2
2017-Apr-22 04:21N 48°14' W 006°03'616.2
2017-Apr-22 03:58N 48°08' W 006°07'1216.1
2017-Apr-22 03:15N 47°58' W 006°15'4616.5
2017-Apr-22 00:27N 47°18' W 006°49'716.9
2017-Apr-22 00:00N 47°11' W 006°54'1116.7
2017-Apr-21 23:22N 47°02' W 007°01'616.4
2017-Apr-21 23:00N 46°56' W 007°04'44215.8
2017-Apr-20 19:00N 39°49' W 009°46'816.9
2017-Apr-20 18:30N 39°41' W 009°45'817.1
2017-Apr-20 18:01N 39°33' W 009°45'815.9
2017-Apr-20 17:31N 39°25' W 009°45'714.3
2017-Apr-20 17:00N 39°18' W 009°45'714.5
2017-Apr-20 16:30N 39°10' W 009°44'816.3
2017-Apr-20 16:00N 39°02' W 009°44'817.0
2017-Apr-20 15:31N 38°54' W 009°43'917.1
2017-Apr-20 15:01N 38°45' W 009°42'714.8
2017-Apr-20 14:30N 38°39' W 009°38'1313.0
2017-Apr-20 13:31N 38°38' W 009°21'711.8
2017-Apr-20 12:55N 38°41' W 009°13'410.9
2017-Apr-20 12:30N 38°42' W 009°08'1 1.2
2017-Apr-20 12:00N 38°43' W 009°07'0 0.0
2017-Apr-20 11:29N 38°43' W 009°07'0 0.0
2017-Apr-20 11:00N 38°43' W 009°07'0 0.0
2017-Apr-20 10:31N 38°43' W 009°07'0 0.0
2017-Apr-20 09:56N 38°43' W 009°07'0 0.0
2017-Apr-20 09:31N 38°43' W 009°07'0 0.0
2017-Apr-20 09:00N 38°43' W 009°07'0 0.0
2017-Apr-20 08:27N 38°43' W 009°07'0 0.0
2017-Apr-20 08:01N 38°43' W 009°07'0 0.0
2017-Apr-20 07:30N 38°43' W 009°07'0 0.0
2017-Apr-20 07:01N 38°43' W 009°07'0 0.0
2017-Apr-20 06:30N 38°43' W 009°07'0 0.0
2017-Apr-20 05:59N 38°43' W 009°07'1 1.9
2017-Apr-20 05:31N 38°42' W 009°08'6 9.7
2017-Apr-20 04:56N 38°41' W 009°15'511.4
2017-Apr-20 04:30N 38°39' W 009°20'611.5
2017-Apr-20 04:01N 38°33' W 009°23'612.7
2017-Apr-20 03:30N 38°27' W 009°23'611.9
2017-Apr-20 03:00N 38°21' W 009°23'611.3
2017-Apr-20 02:31N 38°16' W 009°21'611.1
2017-Apr-20 02:00N 38°10' W 009°20'510.9
2017-Apr-20 01:31N 38°05' W 009°22'611.5
2017-Apr-20 01:01N 38°01' W 009°28'5 9.9
2017-Apr-20 00:31N 37°57' W 009°31'611.4
2017-Apr-20 00:00N 37°52' W 009°29'510.9
2017-Apr-19 23:30N 37°47' W 009°25'511.0
2017-Apr-19 23:00N 37°42' W 009°22'611.5
2017-Apr-19 22:30N 37°36' W 009°21'1811.9
2017-Apr-19 20:58N 37°18' W 009°21'511.8
2017-Apr-19 20:30N 37°13' W 009°21'611.7
2017-Apr-19 19:59N 37°07' W 009°20'611.7
2017-Apr-19 19:30N 37°01' W 009°20'611.6
2017-Apr-19 19:01N 36°55' W 009°19'1211.5
2017-Apr-19 17:59N 36°46' W 009°10'812.4
2017-Apr-19 17:23N 36°42' W 009°02'513.0
2017-Apr-19 17:00N 36°39' W 008°57'714.1
2017-Apr-19 16:31N 36°32' W 008°55'1013.7
2017-Apr-19 15:49N 36°23' W 008°51'1610.9
2017-Apr-19 14:20N 36°08' W 008°43'8 9.9
2017-Apr-19 13:30N 36°01' W 008°38'5 9.5
2017-Apr-19 12:57N 35°57' W 008°35'9 9.2
2017-Apr-19 12:00N 35°48' W 008°34'5 9.6
2017-Apr-19 11:30N 35°43' W 008°32'5 9.5
2017-Apr-19 11:00N 35°39' W 008°30'5 9.3
2017-Apr-19 10:30N 35°35' W 008°28'5 9.1
2017-Apr-19 10:00N 35°30' W 008°26'5 9.1
2017-Apr-19 09:30N 35°26' W 008°24'28 9.3
2017-Apr-19 06:33N 35°01' W 008°12'0 9.0
2017-Apr-19 06:30N 35°00' W 008°12'19 9.5
2017-Apr-19 04:32N 34°43' W 008°03'3 9.5
2017-Apr-19 04:15N 34°40' W 008°02'3 9.5
2017-Apr-19 03:58N 34°38' W 008°01'4 9.5
2017-Apr-19 03:30N 34°34' W 007°59'12 9.6
2017-Apr-19 02:14N 34°22' W 007°53'3 9.3
2017-Apr-19 01:55N 34°20' W 007°51'5 9.3
2017-Apr-19 01:20N 34°15' W 007°49'7 9.6
2017-Apr-19 00:39N 34°08' W 007°47'1 9.6
2017-Apr-19 00:30N 34°07' W 007°47'10 9.9
2017-Apr-18 23:31N 33°58' W 007°42'2 9.9
2017-Apr-18 23:17N 33°56' W 007°41'3 9.6
2017-Apr-18 23:00N 33°53' W 007°40'148 5.3
2017-Apr-17 19:18N 32°32' W 010°08'413.1
2017-Apr-17 18:58N 32°29' W 010°11'813.5
2017-Apr-17 18:21N 32°23' W 010°18'514.4
2017-Apr-17 18:00N 32°20' W 010°23'2514.2
2017-Apr-17 16:14N 32°03' W 010°45'314.2
2017-Apr-17 16:00N 32°01' W 010°48'714.2
2017-Apr-17 15:30N 31°56' W 010°53'714.4
2017-Apr-17 15:00N 31°51' W 010°60'1514.7
2017-Apr-17 14:00N 31°41' W 011°12'714.6
2017-Apr-17 13:30N 31°36' W 011°19'714.7
2017-Apr-17 13:00N 31°31' W 011°25'714.6
2017-Apr-17 12:29N 31°26' W 011°31'714.7
2017-Apr-17 11:59N 31°21' W 011°38'714.5
2017-Apr-17 11:30N 31°16' W 011°43'714.2
2017-Apr-17 11:00N 31°11' W 011°50'1014.0
2017-Apr-17 10:19N 31°04' W 011°58'514.3
2017-Apr-17 09:59N 31°01' W 012°02'914.3
2017-Apr-17 09:21N 30°55' W 012°09'514.3
2017-Apr-17 09:00N 30°52' W 012°14'714.1
2017-Apr-17 08:30N 30°47' W 012°20'714.1
2017-Apr-17 08:00N 30°42' W 012°26'714.1
2017-Apr-17 07:30N 30°37' W 012°32'714.1
2017-Apr-17 07:00N 30°32' W 012°38'714.0
2017-Apr-17 06:30N 30°28' W 012°44'713.9
2017-Apr-17 06:00N 30°23' W 012°50'1614.0
2017-Apr-17 04:53N 30°12' W 013°03'514.1
2017-Apr-17 04:30N 30°08' W 013°07'713.8
2017-Apr-17 04:00N 30°04' W 013°13'713.6
2017-Apr-17 03:30N 29°59' W 013°19'713.7
2017-Apr-17 03:00N 29°55' W 013°25'713.7
2017-Apr-17 02:30N 29°50' W 013°30'713.9
2017-Apr-17 02:00N 29°45' W 013°36'713.9
2017-Apr-17 01:30N 29°40' W 013°42'714.0
2017-Apr-17 00:59N 29°35' W 013°48'714.1
2017-Apr-17 00:30N 29°31' W 013°54'714.4
2017-Apr-17 00:00N 29°25' W 013°60'714.6
2017-Apr-16 23:30N 29°20' W 014°05'714.4
2017-Apr-16 23:00N 29°15' W 014°11'714.5
2017-Apr-16 22:31N 29°10' W 014°16'714.4
2017-Apr-16 22:00N 29°04' W 014°22'714.8
2017-Apr-16 21:30N 28°59' W 014°28'714.9
2017-Apr-16 21:00N 28°53' W 014°33'714.6
2017-Apr-16 20:30N 28°48' W 014°39'714.5
2017-Apr-16 20:00N 28°43' W 014°45'714.5
2017-Apr-16 19:30N 28°37' W 014°50'714.5
2017-Apr-16 19:00N 28°32' W 014°56'714.5
2017-Apr-16 18:30N 28°27' W 015°01'714.8
2017-Apr-16 18:00N 28°21' W 015°07'815.2
2017-Apr-16 17:30N 28°15' W 015°12'714.9
2017-Apr-16 17:00N 28°10' W 015°19'612.0
2017-Apr-16 16:30N 28°07' W 015°24'2 3.2
2017-Apr-16 16:00N 28°08' W 015°26'0 0.0
2017-Apr-16 15:30N 28°08' W 015°26'0 0.0
2017-Apr-16 15:00N 28°08' W 015°26'0 0.0
2017-Apr-16 14:30N 28°08' W 015°26'0 0.0
2017-Apr-16 13:30N 28°08' W 015°26'0 0.0
2017-Apr-16 13:00N 28°08' W 015°26'0 0.0
2017-Apr-16 12:30N 28°08' W 015°26'0 0.0
2017-Apr-16 12:00N 28°08' W 015°26'0 0.0
2017-Apr-16 11:30N 28°08' W 015°26'0 0.0
2017-Apr-16 11:00N 28°08' W 015°25'0 0.0
2017-Apr-16 10:30N 28°08' W 015°25'0 0.0
2017-Apr-16 10:00N 28°08' W 015°26'0 0.0
2017-Apr-16 09:30N 28°08' W 015°25'0 0.0
2017-Apr-16 09:00N 28°08' W 015°25'0 0.0
2017-Apr-16 08:30N 28°08' W 015°25'0 0.0
2017-Apr-16 08:00N 28°08' W 015°26'0 0.0
2017-Apr-16 07:30N 28°08' W 015°26'0 0.0
2017-Apr-16 07:00N 28°08' W 015°26'0 0.0
2017-Apr-16 06:30N 28°08' W 015°26'0 0.0
2017-Apr-16 06:00N 28°08' W 015°25'1 2.3
2017-Apr-16 05:30N 28°07' W 015°25'2 4.4
2017-Apr-16 05:00N 28°06' W 015°23'510.6
2017-Apr-16 04:30N 28°02' W 015°19'611.7
2017-Apr-16 04:00N 27°57' W 015°15'611.8
2017-Apr-16 03:30N 27°52' W 015°16'612.4
2017-Apr-16 03:00N 27°45' W 015°17'2712.7
2017-Apr-16 00:52N 27°20' W 015°26'6912.4
2017-Apr-15 19:19N 26°14' W 015°51'712.4
2017-Apr-15 18:45N 26°07' W 015°53'1112.5
2017-Apr-15 17:54N 25°57' W 015°57'5912.6
2017-Apr-15 13:13N 25°01' W 016°17'512.9
2017-Apr-15 12:50N 24°57' W 016°19'513.2
2017-Apr-15 12:29N 24°52' W 016°21'713.4
2017-Apr-15 12:00N 24°46' W 016°23'1213.4
2017-Apr-15 11:08N 24°35' W 016°27'  

Dump ship's entire track history